Time;durP1;ratioP1;P1;durP2;ratioP2;P2;SDS_P1;SDS_P2;PMS_P1;PMS_P2;Temp;Humidity;BMP_temperature;BMP_pressure;BME280_temperature;BME280_humidity;BME280_pressure;Samples;Min_cycle;Max_cycle;Signal;HPM_P1;HPM_P2
2022/06/14 00:00:53;;;;;;;0.10;0.10;;;11.40;99.90;;;;;;5019123;28;20128;-68
2022/06/14 00:03:24;;;;;;;0.00;0.00;;;11.50;99.90;;;;;;5019844;28;20057;-68
2022/06/14 00:05:50;;;;;;;0.00;0.00;;;11.30;99.90;;;;;;5020176;28;20396;-68
2022/06/14 00:08:18;;;;;;;0.00;0.00;;;11.30;99.90;;;;;;5019750;28;20052;-69
2022/06/14 00:10:43;;;;;;;0.00;0.00;;;11.20;99.90;;;;;;5019451;28;20042;-68
2022/06/14 00:13:10;;;;;;;0.00;0.00;;;11.10;99.90;;;;;;5017684;28;20506;-68
2022/06/14 00:15:36;;;;;;;0.00;0.00;;;11.10;99.90;;;;;;5019220;28;20129;-68
2022/06/14 00:18:02;;;;;;;0.00;0.00;;;11.10;99.90;;;;;;5019945;28;20045;-68
2022/06/14 00:20:28;;;;;;;0.00;0.00;;;11.00;99.90;;;;;;5017949;28;20123;-67
2022/06/14 00:22:54;;;;;;;0.00;0.00;;;11.00;99.90;;;;;;5019242;28;20045;-70
2022/06/14 00:25:32;;;;;;;0.00;0.00;;;11.00;99.90;;;;;;5019476;28;20531;-69
2022/06/14 00:27:58;;;;;;;0.00;0.00;;;10.80;99.90;;;;;;5019172;28;20401;-68
2022/06/14 00:30:25;;;;;;;0.00;0.00;;;10.90;99.90;;;;;;5018183;28;20388;-68
2022/06/14 00:32:51;;;;;;;0.00;0.00;;;10.90;99.90;;;;;;5019203;28;20048;-68
2022/06/14 00:35:17;;;;;;;0.00;0.00;;;10.90;99.90;;;;;;5019450;28;20134;-69
2022/06/14 00:37:43;;;;;;;0.00;0.00;;;10.80;99.90;;;;;;5019259;28;20136;-68
2022/06/14 00:40:12;;;;;;;0.00;0.00;;;10.80;99.90;;;;;;5019725;28;20041;-69
2022/06/14 00:42:38;;;;;;;0.00;0.00;;;10.90;99.90;;;;;;5019483;28;20072;-69
2022/06/14 00:45:13;;;;;;;0.00;0.00;;;10.80;99.90;;;;;;5022685;28;20143;-68
2022/06/14 00:47:40;;;;;;;;;;;10.70;99.90;;;;;;5025169;28;20391;-69
2022/06/14 00:50:15;;;;;;;0.00;0.00;;;10.70;99.90;;;;;;5019204;28;20370;-68
2022/06/14 00:52:53;;;;;;;0.00;0.00;;;10.60;99.90;;;;;;5018627;28;20046;-64
2022/06/14 00:55:26;;;;;;;0.00;0.00;;;10.70;99.90;;;;;;5018904;28;20068;-68
2022/06/14 00:58:07;;;;;;;0.00;0.00;;;10.60;99.90;;;;;;5019294;28;20053;-69
2022/06/14 01:00:38;;;;;;;0.00;0.00;;;10.60;99.90;;;;;;5018781;28;20046;-69
2022/06/14 01:03:14;;;;;;;0.00;0.00;;;10.70;99.90;;;;;;5017767;28;20464;-68
2022/06/14 01:08:30;;;;;;;0.00;0.00;;;10.60;99.90;;;;;;5029048;22;20046;-68
2022/06/14 01:10:56;;;;;;;0.00;0.00;;;10.60;99.90;;;;;;5005279;28;20116;-68
2022/06/14 01:13:23;;;;;;;0.00;0.00;;;10.50;99.90;;;;;;5014908;28;20076;-69
2022/06/14 01:15:50;;;;;;;0.00;0.00;;;10.50;99.90;;;;;;5017940;28;20390;-69
2022/06/14 01:18:17;;;;;;;0.00;0.00;;;10.60;99.90;;;;;;5017285;28;20076;-68
2022/06/14 01:20:43;;;;;;;0.00;0.00;;;10.60;99.90;;;;;;5019493;28;20037;-68
2022/06/14 01:23:14;;;;;;;0.00;0.00;;;10.50;99.90;;;;;;5022841;28;20399;-68
2022/06/14 01:25:46;;;;;;;0.00;0.00;;;10.60;99.90;;;;;;5022939;28;20103;-69
2022/06/14 01:28:13;;;;;;;0.00;0.00;;;10.60;99.90;;;;;;5023520;28;20065;-69
2022/06/14 01:30:45;;;;;;;0.15;0.15;;;10.50;99.90;;;;;;5022620;28;20085;-69
2022/06/14 01:33:40;;;;;;;0.00;0.00;;;10.40;99.90;;;;;;5022766;28;20041;-69
2022/06/14 01:36:13;;;;;;;0.00;0.00;;;10.40;99.90;;;;;;5014666;28;20053;-68
2022/06/14 01:38:41;;;;;;;0.00;0.00;;;10.40;99.90;;;;;;5021923;28;20548;-69
2022/06/14 01:41:30;;;;;;;0.00;0.00;;;10.40;99.90;;;;;;5023141;28;20064;-68
2022/06/14 01:44:10;;;;;;;0.00;0.00;;;10.30;99.90;;;;;;5021456;28;20096;-68
2022/06/14 01:47:07;;;;;;;0.00;0.00;;;10.30;99.90;;;;;;5011783;28;20338;-69
2022/06/14 01:52:52;;;;;;;0.00;0.00;;;10.20;99.90;;;;;;5021740;28;20085;-69
2022/06/14 01:55:36;;;;;;;0.00;0.00;;;10.20;99.90;;;;;;5022150;28;20568;-68
2022/06/14 01:58:06;;;;;;;0.00;0.00;;;10.20;99.90;;;;;;5022556;28;20068;-69
2022/06/14 02:00:41;;;;;;;0.00;0.00;;;10.10;99.90;;;;;;5021733;28;20400;-68
2022/06/14 02:06:39;;;;;;;0.00;0.00;;;10.10;99.90;;;;;;5023127;28;20050;-69
2022/06/14 02:09:19;;;;;;;0.00;0.00;;;10.10;99.90;;;;;;5022207;28;20057;-69
2022/06/14 02:11:45;;;;;;;0.00;0.00;;;10.10;99.90;;;;;;5021901;28;20049;-68
2022/06/14 02:14:20;;;;;;;0.00;0.00;;;10.00;99.90;;;;;;5022633;28;20496;-69
2022/06/14 02:17:15;;;;;;;0.00;0.00;;;10.00;99.90;;;;;;5021906;28;20038;-69
2022/06/14 02:19:50;;;;;;;0.00;0.00;;;10.00;99.90;;;;;;5009188;28;20053;-68
2022/06/14 02:22:24;;;;;;;0.00;0.00;;;10.00;99.90;;;;;;5021565;28;20061;-68
2022/06/14 02:25:01;;;;;;;0.03;0.00;;;9.90;99.90;;;;;;5022186;28;20060;-68
2022/06/14 02:27:40;;;;;;;0.00;0.00;;;9.90;99.90;;;;;;5021967;28;20284;-68
2022/06/14 02:30:09;;;;;;;0.00;0.00;;;9.90;99.90;;;;;;5021097;28;20053;-68
2022/06/14 02:32:48;;;;;;;0.00;0.00;;;9.80;99.90;;;;;;5021476;28;20421;-68
2022/06/14 02:35:36;;;;;;;0.00;0.00;;;9.80;99.90;;;;;;5021503;28;20041;-68
2022/06/14 02:38:05;;;;;;;0.00;0.00;;;9.80;99.90;;;;;;5021868;28;20136;-67
2022/06/14 02:40:42;;;;;;;0.00;0.00;;;9.90;99.90;;;;;;5020904;28;20053;-69
2022/06/14 02:43:20;;;;;;;0.00;0.00;;;9.90;99.90;;;;;;5021600;28;20050;-68
2022/06/14 02:46:00;;;;;;;0.00;0.00;;;10.00;99.90;;;;;;5014909;28;20048;-68
2022/06/14 02:48:33;;;;;;;0.00;0.00;;;9.90;99.90;;;;;;5001832;28;20049;-68
2022/06/14 02:51:04;;;;;;;0.00;0.00;;;10.00;99.90;;;;;;5001663;28;20041;-68
2022/06/14 02:53:50;;;;;;;0.00;0.00;;;10.00;99.90;;;;;;5001032;28;20042;-68
2022/06/14 02:56:30;;;;;;;0.00;0.00;;;10.10;99.90;;;;;;5001270;28;20140;-68
2022/06/14 02:59:07;;;;;;;0.00;0.00;;;10.10;99.90;;;;;;5001084;28;20527;-65
2022/06/14 03:01:42;;;;;;;0.00;0.00;;;10.10;99.90;;;;;;4983460;28;20062;-68
2022/06/14 03:04:18;;;;;;;0.00;0.00;;;10.20;99.90;;;;;;5000889;28;20049;-68
2022/06/14 03:06:47;;;;;;;0.00;0.00;;;10.10;99.90;;;;;;5002333;28;20095;-68
2022/06/14 03:09:17;;;;;;;0.00;0.00;;;10.10;99.90;;;;;;5001669;28;20103;-69
2022/06/14 03:12:01;;;;;;;0.00;0.00;;;10.10;99.90;;;;;;5001285;28;20357;-68
2022/06/14 03:14:33;;;;;;;0.00;0.00;;;10.10;99.90;;;;;;5001027;28;20050;-68
2022/06/14 03:17:04;;;;;;;0.22;0.22;;;10.10;99.90;;;;;;5000306;28;20046;-67
2022/06/14 03:19:59;;;;;;;0.10;0.10;;;10.10;99.90;;;;;;5001222;28;20042;-68
2022/06/14 03:22:31;;;;;;;;;;;10.00;99.90;;;;;;5000963;28;20050;-68
2022/06/14 03:25:23;;;;;;;0.00;0.00;;;10.20;99.90;;;;;;5000921;28;19993;-68
2022/06/14 03:28:01;;;;;;;0.00;0.00;;;10.30;99.90;;;;;;5001100;28;20042;-69
2022/06/14 03:30:29;;;;;;;0.00;0.00;;;10.30;99.90;;;;;;4999328;28;20053;-68
2022/06/14 03:33:15;;;;;;;0.00;0.00;;;10.30;99.90;;;;;;5000345;28;20048;-68
2022/06/14 03:35:45;;;;;;;0.00;0.00;;;10.30;99.90;;;;;;5000015;28;20045;-68
2022/06/14 03:38:23;;;;;;;0.00;0.00;;;10.30;99.90;;;;;;5001251;28;20065;-68
2022/06/14 03:40:51;;;;;;;0.00;0.00;;;10.30;99.90;;;;;;5001111;28;20666;-68
2022/06/14 03:43:17;;;;;;;0.00;0.00;;;10.30;99.90;;;;;;5000470;28;20049;-68
2022/06/14 03:45:52;;;;;;;0.00;0.00;;;10.30;99.90;;;;;;5008712;28;20049;-68
2022/06/14 03:48:18;;;;;;;0.00;0.00;;;10.30;99.90;;;;;;5001365;28;20049;-67
2022/06/14 03:51:10;;;;;;;0.00;0.00;;;10.30;99.90;;;;;;5001392;28;20535;-67
2022/06/14 03:54:04;;;;;;;0.10;0.10;;;10.40;99.90;;;;;;5000283;28;20045;-68
2022/06/14 03:56:49;;;;;;;0.00;0.00;;;10.40;99.90;;;;;;4999607;28;20215;-68
2022/06/14 03:59:34;;;;;;;0.00;0.00;;;10.40;99.90;;;;;;5001206;28;20401;-68
2022/06/14 04:02:12;;;;;;;0.00;0.00;;;10.30;99.90;;;;;;4999325;28;20050;-68
2022/06/14 04:05:14;;;;;;;0.00;0.00;;;10.50;99.90;;;;;;5000287;28;20076;-68
2022/06/14 04:08:06;;;;;;;0.00;0.00;;;10.60;99.90;;;;;;4991470;28;20058;-68
2022/06/14 04:10:47;;;;;;;0.00;0.00;;;10.60;99.90;;;;;;4999314;28;20973;-68
2022/06/14 04:13:30;;;;;;;0.00;0.00;;;10.60;99.90;;;;;;5000534;28;20108;-68
2022/06/14 04:16:05;;;;;;;0.00;0.00;;;10.70;99.90;;;;;;5014779;28;20132;-67
2022/06/14 04:18:38;;;;;;;0.00;0.00;;;10.70;99.90;;;;;;5000224;28;20092;-68
2022/06/14 04:21:10;;;;;;;0.00;0.00;;;10.70;99.90;;;;;;4999467;28;20100;-69
2022/06/14 04:23:58;;;;;;;0.00;0.00;;;10.60;99.90;;;;;;4999868;28;20053;-68
2022/06/14 04:26:39;;;;;;;0.00;0.00;;;10.60;99.90;;;;;;4999434;28;20081;-68
2022/06/14 04:29:32;;;;;;;0.00;0.00;;;10.60;99.90;;;;;;4999919;28;20060;-67
2022/06/14 04:32:05;;;;;;;0.00;0.00;;;10.60;99.90;;;;;;4999228;28;20045;-68
2022/06/14 04:34:46;;;;;;;0.00;0.00;;;10.70;99.90;;;;;;4999729;28;20081;-67
2022/06/14 04:37:34;;;;;;;0.00;0.00;;;10.60;99.90;;;;;;4999409;28;20038;-68
2022/06/14 04:40:21;;;;;;;0.00;0.00;;;10.70;99.90;;;;;;4999740;28;20052;-68
2022/06/14 04:42:52;;;;;;;0.00;0.00;;;10.70;99.90;;;;;;5000043;28;20584;-68
2022/06/14 04:45:30;;;;;;;0.00;0.00;;;10.80;99.90;;;;;;5004896;28;20124;-68
2022/06/14 04:48:12;;;;;;;0.00;0.00;;;10.80;99.90;;;;;;5002902;28;20050;-65
2022/06/14 04:50:53;;;;;;;0.00;0.00;;;11.00;99.90;;;;;;4999755;28;20050;-67
2022/06/14 04:53:41;;;;;;;0.00;0.00;;;11.20;99.90;;;;;;4998792;28;20048;-68
2022/06/14 04:56:17;;;;;;;0.00;0.00;;;11.50;99.90;;;;;;4999110;28;20088;-68
2022/06/14 04:58:56;;;;;;;0.00;0.00;;;12.00;99.90;;;;;;5000085;28;20050;-67
2022/06/14 05:01:28;;;;;;;0.00;0.00;;;12.50;99.90;;;;;;4999100;28;20117;-68
2022/06/14 05:04:06;;;;;;;0.00;0.00;;;12.80;99.90;;;;;;4998625;28;20524;-68
2022/06/14 05:06:45;;;;;;;0.10;0.10;;;13.00;99.90;;;;;;4999520;28;20056;-67
2022/06/14 05:09:25;;;;;;;0.00;0.00;;;13.10;99.90;;;;;;4998839;28;20065;-67
2022/06/14 05:12:07;;;;;;;0.10;0.10;;;13.50;99.90;;;;;;4999832;28;20046;-67
2022/06/14 05:14:38;;;;;;;0.00;0.00;;;13.90;99.90;;;;;;4998866;28;20041;-68
2022/06/14 05:17:33;;;;;;;0.00;0.00;;;13.90;99.90;;;;;;4999038;28;20060;-67
2022/06/14 05:20:13;;;;;;;0.00;0.00;;;14.20;99.90;;;;;;4998129;28;20138;-68
2022/06/14 05:23:02;;;;;;;0.00;0.00;;;14.10;99.90;;;;;;4999063;28;20054;-67
2022/06/14 05:25:46;;;;;;;0.00;0.00;;;14.20;99.90;;;;;;4999485;28;20038;-68
2022/06/14 05:28:15;;;;;;;0.00;0.00;;;14.10;99.90;;;;;;4998501;28;20117;-67
2022/06/14 05:31:05;;;;;;;0.00;0.00;;;14.10;99.90;;;;;;4998521;28;20053;-67
2022/06/14 05:33:43;;;;;;;0.00;0.00;;;13.90;99.90;;;;;;4999170;28;20043;-68
2022/06/14 05:36:18;;;;;;;0.00;0.00;;;13.80;99.90;;;;;;4998208;28;20046;-68
2022/06/14 05:39:25;;;;;;;0.00;0.00;;;13.90;99.90;;;;;;4999594;28;20046;-68
2022/06/14 05:42:00;;;;;;;0.00;0.00;;;14.10;99.90;;;;;;4998097;28;20053;-68
2022/06/14 05:44:31;;;;;;;0.00;0.00;;;14.40;99.90;;;;;;5000917;28;20117;-68
2022/06/14 05:47:02;;;;;;;0.00;0.00;;;14.20;99.90;;;;;;5007238;28;20073;-68
2022/06/14 05:49:35;;;;;;;0.00;0.00;;;14.20;99.90;;;;;;4999170;28;20408;-68
2022/06/14 05:52:10;;;;;;;0.00;0.00;;;14.40;99.90;;;;;;4998250;28;20390;-67
2022/06/14 05:54:39;;;;;;;0.00;0.00;;;14.60;99.90;;;;;;4999202;28;20049;-68
2022/06/14 05:57:28;;;;;;;0.00;0.00;;;14.70;99.90;;;;;;4999175;28;20040;-68
2022/06/14 06:00:00;;;;;;;0.00;0.00;;;14.90;99.90;;;;;;4997916;28;20141;-68
2022/06/14 06:02:44;;;;;;;0.00;0.00;;;15.00;99.90;;;;;;4999386;28;20084;-68
2022/06/14 06:05:19;;;;;;;0.00;0.00;;;14.90;99.90;;;;;;4999169;28;20050;-68
2022/06/14 06:07:54;;;;;;;0.00;0.00;;;14.80;99.90;;;;;;4999438;28;20046;-67
2022/06/14 06:10:25;;;;;;;0.00;0.00;;;15.00;99.90;;;;;;5002235;28;20057;-68
2022/06/14 06:12:58;;;;;;;0.00;0.00;;;15.10;99.90;;;;;;5002608;28;20072;-68
2022/06/14 06:15:37;;;;;;;0.00;0.00;;;15.30;99.90;;;;;;5001290;28;20057;-68
2022/06/14 06:18:16;;;;;;;0.00;0.00;;;15.30;99.90;;;;;;5002799;28;20046;-66
2022/06/14 06:21:05;;;;;;;0.00;0.00;;;15.50;99.90;;;;;;5002552;28;20048;-64
2022/06/14 06:23:41;;;;;;;0.00;0.00;;;15.60;99.90;;;;;;4984488;28;20049;-68
2022/06/14 06:26:10;;;;;;;0.00;0.00;;;15.40;99.90;;;;;;5001490;28;20129;-68
2022/06/14 06:28:42;;;;;;;0.00;0.00;;;15.60;99.90;;;;;;5002459;28;20394;-68
2022/06/14 06:31:23;;;;;;;0.00;0.00;;;15.60;99.90;;;;;;5000381;28;20156;-68
2022/06/14 06:33:52;;;;;;;0.00;0.00;;;15.60;99.90;;;;;;5001954;28;20056;-68
2022/06/14 06:36:38;;;;;;;0.00;0.00;;;15.90;99.90;;;;;;5001908;28;20054;-67
2022/06/14 06:39:19;;;;;;;0.00;0.00;;;16.30;99.90;;;;;;5001401;28;20089;-68
2022/06/14 06:41:55;;;;;;;0.00;0.00;;;16.60;99.90;;;;;;5002591;28;20050;-67
2022/06/14 06:44:38;;;;;;;0.03;0.03;;;16.80;99.90;;;;;;5003861;28;20744;-68
2022/06/14 06:47:31;;;;;;;0.08;0.08;;;16.60;99.90;;;;;;5010654;28;20057;-68
2022/06/14 06:50:02;;;;;;;0.00;0.00;;;16.70;99.90;;;;;;5002095;28;20042;-67
2022/06/14 06:53:01;;;;;;;0.00;0.00;;;16.80;99.90;;;;;;5001574;28;20050;-68
2022/06/14 06:55:54;;;;;;;0.00;0.00;;;16.50;99.90;;;;;;5000401;28;20133;-68
2022/06/14 06:58:38;;;;;;;0.00;0.00;;;16.30;99.90;;;;;;4989172;28;20057;-67
2022/06/14 07:01:26;;;;;;;0.00;0.00;;;16.70;99.90;;;;;;5001090;28;20467;-68
2022/06/14 07:04:15;;;;;;;0.00;0.00;;;16.90;99.90;;;;;;4997556;28;20156;-67
2022/06/14 07:06:53;;;;;;;0.00;0.00;;;17.30;99.90;;;;;;5001226;28;20511;-68
2022/06/14 07:09:38;;;;;;;0.00;0.00;;;17.10;99.90;;;;;;4999830;28;20064;-68
2022/06/14 07:12:21;;;;;;;0.00;0.00;;;16.90;99.90;;;;;;5000690;28;20049;-67
2022/06/14 07:15:00;;;;;;;0.00;0.00;;;16.90;99.90;;;;;;5001152;28;20046;-67
2022/06/14 07:17:40;;;;;;;0.00;0.00;;;16.60;99.90;;;;;;5000728;28;20053;-68
2022/06/14 07:20:18;;;;;;;0.00;0.00;;;16.30;99.90;;;;;;5000959;28;20065;-69
2022/06/14 07:22:50;;;;;;;0.00;0.00;;;16.30;99.90;;;;;;5000703;28;20041;-67
2022/06/14 07:25:30;;;;;;;0.00;0.00;;;16.20;99.90;;;;;;5001065;28;20058;-67
2022/06/14 07:28:10;;;;;;;0.00;0.00;;;16.20;99.90;;;;;;4999898;28;20050;-67
2022/06/14 07:30:46;;;;;;;0.00;0.00;;;16.80;99.90;;;;;;5000564;28;20050;-66
2022/06/14 07:33:13;;;;;;;0.00;0.00;;;17.00;99.90;;;;;;5001611;28;20609;-67
2022/06/14 07:36:07;;;;;;;0.00;0.00;;;17.50;99.90;;;;;;5000317;28;20081;-67
2022/06/14 07:38:43;;;;;;;0.00;0.00;;;17.90;99.90;;;;;;5000772;28;20050;-65
2022/06/14 07:41:33;;;;;;;0.00;0.00;;;18.40;99.90;;;;;;5000480;28;20034;-67
2022/06/14 07:44:21;;;;;;;0.00;0.00;;;18.60;99.90;;;;;;5001323;28;20125;-67
2022/06/14 07:46:56;;;;;;;0.00;0.00;;;19.00;99.90;;;;;;5009840;28;20496;-67
2022/06/14 07:49:27;;;;;;;0.00;0.00;;;19.00;99.90;;;;;;5000816;28;20100;-67
2022/06/14 07:52:00;;;;;;;0.00;0.00;;;18.80;99.90;;;;;;5000647;28;20048;-68
2022/06/14 07:54:33;;;;;;;0.00;0.00;;;18.50;99.90;;;;;;5000883;28;20100;-66
2022/06/14 07:57:11;;;;;;;0.00;0.00;;;18.20;99.90;;;;;;5000064;28;20100;-67
2022/06/14 08:03:01;;;;;;;0.00;0.00;;;18.10;99.90;;;;;;4995804;28;20077;-68
2022/06/14 08:05:33;;;;;;;0.00;0.00;;;17.80;99.90;;;;;;5000337;28;20049;-67
2022/06/14 08:08:04;;;;;;;0.00;0.00;;;18.00;99.90;;;;;;5000462;28;20092;-66
2022/06/14 08:10:37;;;;;;;0.00;0.00;;;18.40;99.90;;;;;;5000004;28;20050;-65
2022/06/14 08:13:09;;;;;;;0.00;0.00;;;18.50;99.90;;;;;;4999498;28;20060;-65
2022/06/14 08:15:42;;;;;;;0.00;0.00;;;18.40;99.90;;;;;;4999875;28;20095;-66
2022/06/14 08:18:24;;;;;;;0.00;0.00;;;18.20;99.90;;;;;;5000156;28;20054;-66
2022/06/14 08:21:04;;;;;;;0.00;0.00;;;18.30;99.90;;;;;;5000074;28;20046;-66
2022/06/14 08:23:52;;;;;;;0.00;0.00;;;18.20;99.90;;;;;;4998514;28;20042;-66
2022/06/14 08:26:49;;;;;;;0.00;0.00;;;17.60;99.90;;;;;;5000381;28;20137;-67
2022/06/14 08:29:15;;;;;;;0.00;0.00;;;17.60;99.90;;;;;;4999368;28;20490;-66
2022/06/14 08:31:55;;;;;;;0.00;0.00;;;18.10;99.90;;;;;;4999702;28;20034;-66
2022/06/14 08:34:30;;;;;;;0.00;0.00;;;18.50;99.90;;;;;;4999217;28;20579;-66
2022/06/14 08:37:03;;;;;;;0.00;0.00;;;19.00;99.90;;;;;;5000011;28;20034;-66
2022/06/14 08:39:35;;;;;;;0.00;0.00;;;19.10;99.90;;;;;;5000143;28;20484;-66
2022/06/14 08:42:20;;;;;;;0.00;0.00;;;18.80;99.90;;;;;;4999333;28;20034;-66
2022/06/14 08:45:03;;;;;;;0.00;0.00;;;18.70;99.90;;;;;;5002156;28;20571;-66
2022/06/14 08:47:40;;;;;;;0.00;0.00;;;18.90;99.90;;;;;;5010664;28;20164;-67
2022/06/14 08:50:20;;;;;;;0.00;0.00;;;19.10;99.90;;;;;;5019538;28;20508;-67
2022/06/14 08:53:11;;;;;;;0.00;0.00;;;19.40;99.90;;;;;;5019058;28;20395;-66
2022/06/14 08:56:01;;;;;;;0.00;0.00;;;19.80;99.90;;;;;;5018166;28;20063;-67
2022/06/14 08:58:51;;;;;;;0.00;0.00;;;19.80;99.90;;;;;;5019364;28;20045;-66
2022/06/14 09:01:44;;;;;;;0.00;0.00;;;20.00;99.90;;;;;;5017733;28;20404;-66
2022/06/14 09:04:43;;;;;;;0.00;0.00;;;19.60;99.90;;;;;;5019209;28;20434;-66
2022/06/14 09:07:44;;;;;;;0.00;0.00;;;19.20;99.90;;;;;;5012964;28;20052;-65
2022/06/14 09:10:28;;;;;;;0.00;0.00;;;18.90;99.90;;;;;;5014977;28;20787;-67
2022/06/14 09:13:02;;;;;;;0.00;0.00;;;18.60;99.90;;;;;;5017773;28;20053;-65
2022/06/14 09:15:57;;;;;;;0.00;0.00;;;18.50;99.90;;;;;;4998432;28;20049;-66
2022/06/14 09:18:41;;;;;;;0.00;0.00;;;18.60;99.90;;;;;;4961313;28;20410;-66
2022/06/14 09:21:16;;;;;;;0.00;0.00;;;19.00;99.90;;;;;;5008776;28;20092;-65
2022/06/14 09:23:45;;;;;;;0.00;0.00;;;19.20;99.90;;;;;;5017919;28;20049;-67
2022/06/14 09:26:30;;;;;;;0.00;0.00;;;19.60;99.90;;;;;;5018899;28;20099;-66
2022/06/14 09:29:33;;;;;;;0.00;0.00;;;19.90;99.90;;;;;;5018340;28;20050;-62
2022/06/14 09:32:32;;;;;;;0.00;0.00;;;19.90;99.90;;;;;;5018477;28;20042;-67
2022/06/14 09:35:15;;;;;;;0.00;0.00;;;19.60;99.90;;;;;;5018763;28;20103;-66
2022/06/14 09:38:06;;;;;;;0.00;0.00;;;19.40;99.90;;;;;;5018230;28;20148;-65
2022/06/14 09:40:57;;;;;;;0.00;0.00;;;20.00;99.90;;;;;;5018703;28;20045;-66
2022/06/14 09:43:47;;;;;;;0.00;0.00;;;20.60;99.90;;;;;;5021077;28;20053;-66
2022/06/14 09:46:35;;;;;;;0.00;0.00;;;20.70;99.90;;;;;;5013182;28;20124;-67
2022/06/14 09:49:16;;;;;;;0.00;0.00;;;21.00;99.90;;;;;;5003002;28;20054;-66
2022/06/14 09:52:07;;;;;;;0.00;0.00;;;21.30;99.90;;;;;;5003021;28;20539;-66
2022/06/14 09:54:57;;;;;;;0.00;0.00;;;21.10;99.90;;;;;;5002415;28;20111;-67
2022/06/14 09:57:31;;;;;;;0.00;0.00;;;21.10;99.90;;;;;;5001215;28;20052;-66
2022/06/14 10:00:08;;;;;;;0.00;0.00;;;20.80;99.90;;;;;;5000038;28;20038;-67
2022/06/14 10:03:01;;;;;;;0.00;0.00;;;20.40;99.90;;;;;;5002684;28;20117;-67
2022/06/14 10:05:35;;;;;;;0.00;0.00;;;20.00;99.90;;;;;;5001572;28;20048;-68
2022/06/14 10:08:04;;;;;;;0.00;0.00;;;20.00;99.90;;;;;;5017752;28;20153;-68
2022/06/14 10:10:49;;;;;;;0.00;0.00;;;19.80;99.90;;;;;;5002110;28;20062;-68
2022/06/14 10:13:14;;;;;;;;;;;19.80;99.90;;;;;;5002946;28;20116;-68
2022/06/14 10:16:17;;;;;;;0.00;0.00;;;19.60;99.90;;;;;;5000579;28;19925;-69
2022/06/14 10:19:02;;;;;;;0.00;0.00;;;19.70;99.90;;;;;;5002732;28;20050;-69
2022/06/14 10:21:44;;;;;;;0.10;0.10;;;19.90;99.90;;;;;;5001254;28;20640;-67
2022/06/14 10:24:20;;;;;;;0.00;0.00;;;19.80;99.90;;;;;;5001778;28;20050;-68
2022/06/14 10:30:07;;;;;;;0.00;0.00;;;20.20;99.90;;;;;;4991713;28;20054;-68
2022/06/14 10:32:57;;;;;;;0.00;0.00;;;20.10;99.90;;;;;;5002188;28;20124;-68
2022/06/14 10:35:54;;;;;;;0.00;0.00;;;19.40;99.90;;;;;;5001000;28;20048;-69
2022/06/14 10:38:40;;;;;;;0.00;0.00;;;19.30;99.90;;;;;;5000201;28;20246;-70
2022/06/14 10:41:36;;;;;;;0.00;0.00;;;19.30;99.90;;;;;;5001910;28;20206;-71
2022/06/14 10:44:16;;;;;;;0.00;0.00;;;19.70;99.90;;;;;;5001193;28;20046;-69
2022/06/14 10:46:54;;;;;;;0.00;0.00;;;19.80;99.90;;;;;;5010764;28;20187;-61
2022/06/14 10:49:41;;;;;;;0.00;0.00;;;19.90;99.90;;;;;;5004635;28;20053;-67
2022/06/14 10:52:07;;;;;;;0.00;0.00;;;20.00;99.90;;;;;;5001320;28;20042;-68
2022/06/14 10:54:55;;;;;;;0.00;0.00;;;20.10;99.90;;;;;;4999741;28;20084;-75
2022/06/14 10:57:49;;;;;;;0.10;0.10;;;20.10;99.90;;;;;;5001531;28;20256;-75
2022/06/14 11:00:30;;;;;;;0.00;0.00;;;20.10;99.90;;;;;;5001498;28;20061;-76
2022/06/14 11:03:21;;;;;;;0.00;0.00;;;20.00;99.90;;;;;;5000522;28;20060;-75
2022/06/14 11:06:06;;;;;;;0.00;0.00;;;19.90;99.90;;;;;;5000181;28;20045;-74
2022/06/14 11:08:50;;;;;;;0.00;0.00;;;19.80;99.90;;;;;;5006525;28;20041;-74
2022/06/14 11:11:39;;;;;;;0.00;0.00;;;19.70;99.90;;;;;;4962872;28;20156;-70
2022/06/14 11:14:37;;;;;;;0.00;0.00;;;19.70;99.90;;;;;;4980798;28;20050;-74
2022/06/14 11:17:33;;;;;;;0.00;0.00;;;19.70;99.90;;;;;;4977558;28;20085;-74
2022/06/14 11:20:42;;;;;;;0.00;0.00;;;19.90;99.90;;;;;;4981060;28;20077;-73
2022/06/14 11:23:27;;;;;;;0.00;0.00;;;19.80;99.90;;;;;;4980286;28;20046;-73
2022/06/14 11:26:11;;;;;;;0.00;0.00;;;19.90;99.90;;;;;;4961831;28;20066;-72
2022/06/14 11:29:09;;;;;;;0.00;0.00;;;20.10;99.90;;;;;;4961268;28;20713;-74
2022/06/14 11:31:54;;;;;;;0.00;0.00;;;20.30;99.90;;;;;;4961631;28;20121;-72
2022/06/14 11:34:41;;;;;;;0.00;0.00;;;20.10;99.90;;;;;;4959640;28;20054;-72
2022/06/14 11:37:10;;;;;;;0.00;0.00;;;20.40;99.90;;;;;;4961658;28;20054;-73
2022/06/14 11:39:59;;;;;;;0.00;0.00;;;20.50;99.90;;;;;;4960810;28;20109;-73
2022/06/14 11:42:43;;;;;;;0.00;0.00;;;20.70;99.90;;;;;;4961376;28;20038;-73
2022/06/14 11:45:12;;;;;;;;;;;20.80;99.90;;;;;;4965475;28;20050;-72
2022/06/14 11:47:46;;;;;;;0.00;0.00;;;20.90;99.90;;;;;;4967482;28;19918;-73
2022/06/14 11:50:33;;;;;;;0.00;0.00;;;21.00;99.90;;;;;;4971711;28;20070;-73
2022/06/14 11:53:07;;;;;;;0.00;0.00;;;21.00;99.90;;;;;;4980455;28;20054;-73
2022/06/14 11:55:52;;;;;;;0.00;0.00;;;21.20;99.90;;;;;;4981198;28;20534;-72
2022/06/14 11:58:38;;;;;;;0.00;0.00;;;21.20;99.90;;;;;;4980968;28;20050;-74
2022/06/14 12:01:27;;;;;;;0.00;0.00;;;21.30;99.90;;;;;;4980327;28;20086;-63
2022/06/14 12:04:02;;;;;;;0.08;0.08;;;21.40;99.90;;;;;;4980841;28;20046;-75
2022/06/14 12:06:56;;;;;;;0.00;0.00;;;21.50;99.90;;;;;;4979705;28;20533;-75
2022/06/14 12:09:43;;;;;;;0.00;0.00;;;21.60;99.90;;;;;;4990539;28;20065;-76
2022/06/14 12:12:24;;;;;;;0.00;0.00;;;21.80;99.90;;;;;;5019633;28;20576;-75
2022/06/14 12:14:57;;;;;;;0.00;0.00;;;22.00;99.90;;;;;;5017778;28;20089;-76
2022/06/14 12:17:50;;;;;;;0.00;0.00;;;21.80;99.90;;;;;;5019772;28;20084;-75
2022/06/14 12:20:19;;;;;;;0.00;0.00;;;21.70;99.90;;;;;;5017762;28;20507;-75
2022/06/14 12:23:06;;;;;;;0.00;0.00;;;21.40;99.90;;;;;;5019764;28;20499;-75
2022/06/14 12:28:38;;;;;;;0.00;0.00;;;21.20;99.90;;;;;;5019735;28;20042;-73
2022/06/14 12:31:20;;;;;;;0.00;0.00;;;21.10;99.90;;;;;;5017606;28;20121;-75
2022/06/14 12:33:51;;;;;;;0.00;0.00;;;20.80;99.90;;;;;;5020060;28;20065;-67
2022/06/14 12:36:47;;;;;;;0.00;0.00;;;21.00;99.90;;;;;;5017449;28;20053;-76
2022/06/14 12:39:46;;;;;;;0.00;0.00;;;20.90;99.90;;;;;;5018021;28;20120;-76
2022/06/14 12:42:31;;;;;;;0.00;0.00;;;20.80;99.90;;;;;;5019832;28;20045;-76
2022/06/14 12:45:02;;;;;;;0.00;0.00;;;20.70;99.90;;;;;;5011638;28;20054;-74
2022/06/14 12:47:56;;;;;;;0.00;0.00;;;20.70;99.90;;;;;;5006096;28;20041;-74
2022/06/14 12:50:45;;;;;;;0.00;0.00;;;20.70;99.90;;;;;;4999255;28;20565;-75
2022/06/14 12:53:30;;;;;;;0.00;0.00;;;20.60;99.90;;;;;;4999850;28;20049;-76
2022/06/14 12:56:09;;;;;;;0.00;0.00;;;20.80;99.90;;;;;;4998144;28;20061;-71
2022/06/14 12:59:07;;;;;;;0.00;0.00;;;21.00;99.90;;;;;;4998319;28;20052;-76
2022/06/14 13:02:01;;;;;;;0.00;0.00;;;21.20;99.90;;;;;;4998926;28;20044;-75
2022/06/14 13:04:36;;;;;;;0.00;0.00;;;21.40;99.90;;;;;;4999894;28;20046;-76
2022/06/14 13:07:16;;;;;;;0.00;0.00;;;21.40;99.90;;;;;;4999493;28;20054;-76
2022/06/14 13:10:00;;;;;;;0.00;0.00;;;21.40;99.90;;;;;;5001965;28;20054;-68
2022/06/14 13:13:05;;;;;;;0.00;0.00;;;21.40;99.90;;;;;;5004873;28;20085;-75
2022/06/14 13:16:03;;;;;;;0.00;0.00;;;21.30;99.90;;;;;;5004881;28;20530;-75
2022/06/14 13:18:52;;;;;;;0.00;0.00;;;21.40;99.90;;;;;;5010628;28;20087;-75
2022/06/14 13:21:43;;;;;;;0.00;0.00;;;21.30;99.90;;;;;;5012170;28;20323;-75
2022/06/14 13:24:25;;;;;;;0.00;0.00;;;21.40;99.90;;;;;;5011295;28;20041;-75
2022/06/14 13:27:02;;;;;;;0.00;0.00;;;21.40;99.90;;;;;;5012132;28;20056;-75
2022/06/14 13:29:54;;;;;;;0.00;0.00;;;21.50;99.90;;;;;;5011690;28;20056;-66
2022/06/14 13:32:32;;;;;;;0.00;0.00;;;21.50;99.90;;;;;;5012873;28;20056;-74
2022/06/14 13:35:17;;;;;;;0.00;0.00;;;21.40;99.90;;;;;;5013704;28;20052;-73
2022/06/14 13:38:10;;;;;;;0.00;0.00;;;21.50;99.90;;;;;;5013060;28;20038;-75
2022/06/14 13:40:57;;;;;;;0.00;0.00;;;21.80;99.90;;;;;;5012942;28;20096;-74
2022/06/14 13:43:51;;;;;;;0.00;0.00;;;22.20;99.90;;;;;;5011368;28;20142;-74
2022/06/14 13:46:25;;;;;;;0.00;0.00;;;22.30;99.90;;;;;;5013583;28;20419;-75
2022/06/14 13:49:28;;;;;;;0.00;0.00;;;22.20;99.90;;;;;;5012377;28;20034;-74
2022/06/14 13:52:30;;;;;;;0.00;0.00;;;22.40;99.90;;;;;;5012920;28;20052;-74
2022/06/14 13:55:04;;;;;;;0.00;0.00;;;22.20;99.90;;;;;;5019474;28;20467;-74
2022/06/14 13:57:47;;;;;;;0.00;0.00;;;21.70;99.90;;;;;;5011596;28;20045;-76
2022/06/14 14:00:32;;;;;;;0.10;0.10;;;21.30;99.90;;;;;;5013121;28;20037;-78
2022/06/14 14:03:22;;;;;;;0.00;0.00;;;21.30;99.90;;;;;;5012076;28;20060;-58
2022/06/14 14:06:06;;;;;;;0.00;0.00;;;21.30;99.90;;;;;;5011606;28;20462;-76
2022/06/14 14:08:42;;;;;;;0.00;0.00;;;21.10;99.90;;;;;;5011677;28;20094;-75
2022/06/14 14:11:11;;;;;;;0.00;0.00;;;21.10;99.90;;;;;;5009311;28;20052;-75
2022/06/14 14:13:45;;;;;;;0.00;0.00;;;21.20;99.90;;;;;;5010240;28;20737;-76